Warning: Javascript must be enabled to use all the features on this page!


Page Loading - Please Wait...

Click to hideNews Bulletins

Peak Streamflow for the Nation

USGS 03216600 OHIO RIVER AT GREENUP DAM NEAR GREENUP, KY

Greenup County, Kentucky
Hydrologic Unit Code 05090103
Latitude  38°38'48", Longitude  82°51'38" NAD27
Drainage area 62,000.0  square miles
Gage datum 472.97 feet above COE1912
Output formats
Table
Graph
Tab-separated file
peakfq (watstore) format
Reselect output format
Water
Year
Date Gage
Height
(feet)
Stream-
flow
(cfs)
1969 1969-02-02   250,0001,5
1970 1970-04-05   335,0001,5
1971 1971-02-24   330,0001,5
1972 1972-02-27   419,0001,5
1973 1972-12-11   475,0001,5
1974 1974-01-12   540,0001,5
1975 1975-03-16   400,0001,5
1976 1976-02-20   367,0001,5
1977 1977-04-06   478,0001,5
1978 1978-01-28 53.73 466,0001,5
1979 1978-12-10   534,0001,5
1980 1980-04-16   302,0001,5
1981 1981-02-24   367,0001,5
1982 1982-03-18 46.631 345,0001,5
1983 1983-05-06 49.34 373,0001,5
1984 1984-03-31 46.66 347,0001,5
1985 1985-02-27 46.19 355,0001,5
1986 1985-11-30 53.71 454,0001,5
1987 1987-04-10 50.96 428,0001,5
1988 1988-02-05 43.03 310,0001,5
1989 1989-02-17 49.47 390,0001,5
1990 1990-02-15   401,0001,5
1991 1991-01-02 56.04 481,0001,5
1992 1991-12-04 45.01 363,0001,5
1993 1993-03-26 50.57 420,0001,5
1994 1994-01-31 54.17 420,0001,5
1995 1995-05-20 47.23 364,0001,5
1996 1996-05-18   444,0001,5
1997 1997-03-04 62.19 520,0001,5
1998 1998-01-11 50.16 400,0001,5
1999 1999-01-27 45.442 324,0001,5
2000 2000-02-21 54.50 433,0001,5
2001 2001-05-24 43.23 307,0001,5
2002 2002-03-22 49.03 371,0001,5
2003 2003-02-25 52.16 406,0001,5
2004 2004-04-16   448,0001,5
2005 2005-01-09 56.602 456,0001,5
2006 2006-01-25 40.70 284,0001,5
2007 2007-03-19 49.00 367,0001,5
2008 2008-03-08 50.44 386,0001,5
2009 2009-05-07 42.93 308,0001,5
2010 2010-03-16 51.69 400,0001,5
2011 2011-03-13 56.76 458,0001,5
2012 2012-03-04 46.93 347,0001,5
2013 2013-02-02 50.01 383,0001,5
?
  Peak Gage-Height Qualification Codes.
?
  Peak Streamflow Qualification Codes.